createdAt,value
2023-03-06T00:01:48.644Z,11.27
2023-03-06T00:04:51.666Z,11.52
2023-03-06T00:07:54.655Z,12.95
2023-03-06T00:10:58.138Z,11.20
2023-03-06T00:14:01.024Z,11.55
2023-03-06T00:17:05.408Z,10.15
2023-03-06T00:20:11.306Z,12.13
2023-03-06T00:23:14.202Z,9.40
2023-03-06T00:26:17.176Z,11.43
2023-03-06T00:29:20.164Z,10.07
2023-03-06T00:32:25.026Z,7.95
2023-03-06T00:35:28.009Z,9.23
2023-03-06T00:38:33.484Z,8.60
2023-03-06T00:41:36.472Z,9.18
2023-03-06T00:44:39.859Z,12.65
2023-03-06T00:47:44.343Z,12.23
2023-03-06T00:50:47.335Z,7.53
2023-03-06T00:53:50.336Z,9.32
2023-03-06T00:56:54.298Z,9.77
2023-03-06T00:59:57.176Z,11.63
2023-03-06T01:03:01.500Z,8.77
2023-03-06T01:06:04.852Z,9.18
2023-03-06T01:09:10.345Z,8.23
2023-03-06T01:12:13.298Z,8.93
2023-03-06T01:15:16.277Z,7.72
2023-03-06T01:18:20.692Z,8.05
2023-03-06T01:21:24.543Z,9.88
2023-03-06T01:24:28.543Z,6.85
2023-03-06T01:27:32.799Z,7.40
2023-03-06T01:30:35.744Z,8.00
2023-03-06T01:33:40.055Z,5.82
2023-03-06T01:36:43.033Z,8.27
2023-03-06T01:39:46.392Z,9.60
2023-03-06T01:42:50.770Z,7.68
2023-03-06T01:46:30.193Z,7.63
2023-03-06T01:49:37.407Z,7.80
2023-03-06T01:52:47.285Z,6.95
2023-03-06T01:55:50.475Z,5.80
2023-03-06T01:58:54.273Z,6.38
2023-03-06T02:01:59.464Z,7.80
2023-03-06T02:05:05.424Z,6.22
2023-03-06T02:08:10.348Z,6.60
2023-03-06T02:11:17.339Z,6.63
2023-03-06T02:14:20.393Z,7.18
2023-03-06T02:17:24.089Z,6.78
2023-03-06T02:20:35.229Z,6.47
2023-03-06T02:23:47.282Z,7.47
2023-03-06T02:26:53.792Z,6.22
2023-03-06T02:29:57.246Z,6.47
2023-03-06T02:33:00.243Z,5.82
2023-03-06T02:36:05.084Z,5.88
2023-03-06T02:39:09.151Z,6.50
2023-03-06T02:42:19.009Z,5.78
2023-03-06T02:45:28.462Z,5.47
2023-03-06T02:48:31.415Z,5.65
2023-03-06T02:51:35.532Z,8.48
2023-03-06T02:54:38.425Z,6.07
2023-03-06T02:57:44.267Z,4.97
2023-03-06T03:00:48.050Z,4.95
2023-03-06T03:03:51.115Z,4.78
2023-03-06T03:06:54.494Z,5.35
2023-03-06T03:09:59.487Z,5.28
2023-03-06T03:13:04.200Z,5.57
2023-03-06T03:16:10.601Z,4.60
2023-03-06T03:19:13.602Z,4.80
2023-03-06T03:22:17.155Z,5.03
2023-03-06T03:25:21.193Z,3.70
2023-03-06T03:28:25.858Z,4.78
2023-03-06T03:31:29.258Z,4.68
2023-03-06T03:34:32.387Z,4.07
2023-03-06T03:37:36.144Z,4.70
2023-03-06T03:40:40.029Z,4.60
2023-03-06T03:43:45.049Z,6.82
2023-03-06T03:46:48.112Z,7.85
2023-03-06T03:49:56.306Z,4.53
2023-03-06T03:53:00.809Z,4.38
2023-03-06T03:56:04.283Z,5.50
2023-03-06T03:59:12.298Z,4.68
2023-03-06T04:02:23.859Z,4.13
2023-03-06T04:05:47.405Z,3.70
2023-03-06T04:08:52.632Z,4.10
2023-03-06T04:11:56.003Z,4.18
2023-03-06T04:15:00.840Z,3.58
2023-03-06T04:18:04.831Z,3.55
2023-03-06T04:21:07.919Z,3.67
2023-03-06T04:24:11.131Z,3.70
2023-03-06T04:27:14.308Z,4.95
2023-03-06T04:30:20.542Z,3.58
2023-03-06T04:33:24.112Z,3.47
2023-03-06T04:36:30.078Z,3.60
2023-03-06T04:39:37.209Z,3.67
2023-03-06T04:42:40.295Z,4.03
2023-03-06T04:45:44.720Z,4.28
2023-03-06T04:48:47.888Z,3.25
2023-03-06T04:51:50.852Z,3.17
2023-03-06T04:54:53.820Z,4.43
2023-03-06T04:57:58.932Z,3.53
2023-03-06T05:01:03.507Z,4.75
2023-03-06T05:04:06.533Z,4.10
2023-03-06T05:07:09.545Z,2.53
2023-03-06T05:10:18.295Z,4.03
2023-03-06T05:13:21.218Z,4.88
2023-03-06T05:16:25.564Z,2.95
2023-03-06T05:19:28.507Z,2.42
2023-03-06T05:22:31.387Z,2.88
2023-03-06T05:25:34.237Z,2.53
2023-03-06T05:28:37.337Z,3.20
2023-03-06T05:31:41.631Z,3.33
2023-03-06T05:34:45.000Z,2.70
2023-03-06T05:37:48.314Z,3.25
2023-03-06T05:40:51.349Z,3.25
2023-03-06T05:43:54.343Z,2.78
2023-03-06T05:46:58.632Z,3.15
2023-03-06T05:50:01.682Z,2.88
2023-03-06T05:53:04.968Z,2.15
2023-03-06T05:56:09.944Z,3.33
2023-03-06T05:59:12.933Z,2.75
2023-03-06T06:02:17.491Z,2.72
2023-03-06T06:05:20.423Z,3.40
2023-03-06T06:08:23.478Z,3.10
2023-03-06T06:11:26.419Z,2.63
2023-03-06T06:14:29.510Z,2.58
2023-03-06T06:17:33.904Z,2.97
2023-03-06T06:20:38.751Z,2.42
2023-03-06T06:23:42.373Z,3.30
2023-03-06T06:26:46.292Z,3.28
2023-03-06T06:29:52.289Z,2.17
2023-03-06T06:32:56.708Z,2.55
2023-03-06T06:35:59.720Z,2.15
2023-03-06T06:39:03.511Z,2.60
2023-03-06T06:42:28.944Z,2.13
2023-03-06T06:45:31.279Z,3.10
2023-03-06T06:48:37.655Z,2.45
2023-03-06T06:51:41.674Z,1.85
2023-03-06T06:54:44.603Z,3.35
2023-03-06T06:57:47.529Z,2.45
2023-03-06T07:00:50.541Z,2.58
2023-03-06T07:03:55.027Z,2.78
2023-03-06T07:06:58.119Z,2.20
2023-03-06T07:10:01.129Z,2.75
2023-03-06T07:13:04.045Z,3.15
2023-03-06T07:16:08.094Z,2.28
2023-03-06T07:19:12.377Z,2.13
2023-03-06T07:22:15.298Z,2.72
2023-03-06T07:25:18.518Z,2.25
2023-03-06T07:28:22.209Z,2.75
2023-03-06T07:31:27.236Z,2.47
2023-03-06T07:34:31.547Z,2.53
2023-03-06T07:37:34.504Z,2.75
2023-03-06T07:40:38.833Z,2.25
2023-03-06T07:43:41.934Z,2.17
2023-03-06T07:46:44.836Z,2.63
2023-03-06T07:49:49.200Z,5.15
2023-03-06T07:52:52.759Z,1.73
2023-03-06T07:55:55.861Z,2.15
2023-03-06T07:58:58.876Z,2.38
2023-03-06T08:02:01.825Z,2.67
2023-03-06T08:05:07.720Z,2.15
2023-03-06T08:08:11.074Z,3.65
2023-03-06T08:11:15.895Z,3.85
2023-03-06T08:14:18.905Z,6.00
2023-03-06T08:17:21.896Z,3.17
2023-03-06T08:20:26.706Z,4.07
2023-03-06T08:23:29.922Z,3.33
2023-03-06T08:26:34.033Z,3.70
2023-03-06T08:29:37.196Z,6.07
2023-03-06T08:32:40.451Z,2.97
2023-03-06T08:35:44.913Z,7.82
2023-03-06T08:38:47.982Z,4.25
2023-03-06T08:41:51.119Z,5.10
2023-03-06T08:44:54.154Z,4.72
2023-03-06T08:47:57.418Z,2.00
2023-03-06T08:51:01.885Z,1.40
2023-03-06T08:54:05.312Z,3.72
2023-03-06T08:57:09.157Z,2.35
2023-03-06T09:00:13.965Z,1.60
2023-03-06T09:03:16.984Z,4.28
2023-03-06T09:06:21.961Z,10.02
2023-03-06T09:09:24.895Z,4.72
2023-03-06T09:12:29.319Z,3.35
2023-03-06T09:15:33.783Z,3.60
2023-03-06T09:18:36.927Z,8.73
2023-03-06T09:21:41.365Z,5.30
2023-03-06T09:24:44.280Z,6.90
2023-03-06T09:27:55.413Z,4.97
2023-03-06T09:31:09.003Z,8.00
2023-03-06T09:34:12.038Z,13.48
2023-03-06T09:37:17.367Z,12.52
2023-03-06T09:40:27.125Z,4.65
2023-03-06T09:43:32.232Z,5.18
2023-03-06T09:46:47.396Z,6.30
2023-03-06T09:50:04.955Z,7.82
2023-03-06T09:53:34.292Z,6.00
2023-03-06T09:56:38.350Z,5.32
2023-03-06T09:59:46.519Z,4.05
2023-03-06T10:02:53.754Z,5.95
2023-03-06T10:06:03.438Z,8.10
2023-03-06T10:09:14.627Z,4.65
2023-03-06T10:12:25.141Z,4.72
2023-03-06T10:15:33.274Z,9.95
2023-03-06T10:18:39.137Z,7.03
2023-03-06T10:21:53.172Z,8.20
2023-03-06T10:25:02.881Z,7.78
2023-03-06T10:28:15.685Z,7.78
2023-03-06T10:31:24.952Z,8.98
2023-03-06T10:34:32.006Z,8.25
2023-03-06T10:37:35.097Z,8.55
2023-03-06T10:40:48.844Z,9.18
2023-03-06T10:44:24.151Z,7.10
2023-03-06T10:47:34.868Z,7.30
2023-03-06T10:50:38.004Z,8.63
2023-03-06T10:53:51.374Z,7.60
2023-03-06T10:56:56.032Z,6.15
2023-03-06T11:00:01.156Z,6.35
2023-03-06T11:03:18.276Z,10.18
2023-03-06T11:06:34.665Z,7.32
2023-03-06T11:09:37.756Z,10.35
2023-03-06T11:12:43.541Z,8.50
2023-03-06T11:15:57.621Z,7.25
2023-03-06T11:19:03.947Z,7.03
2023-03-06T11:22:17.395Z,11.02
2023-03-06T11:25:23.257Z,6.95
2023-03-06T11:28:31.458Z,9.73
2023-03-06T11:31:38.826Z,9.68
2023-03-06T11:34:50.401Z,8.40
2023-03-06T11:37:58.440Z,8.10
2023-03-06T11:41:06.925Z,13.65
2023-03-06T11:44:19.911Z,9.23
2023-03-06T11:47:26.981Z,9.43
2023-03-06T11:50:35.696Z,9.65
2023-03-06T11:53:41.110Z,12.02
2023-03-06T11:56:52.819Z,13.27
2023-03-06T12:00:14.619Z,11.45
2023-03-06T12:03:50.834Z,11.85
2023-03-06T12:07:00.108Z,11.18
2023-03-06T12:10:16.945Z,9.93
2023-03-06T12:13:37.152Z,12.65
2023-03-06T12:16:53.487Z,9.85
2023-03-06T12:20:15.482Z,11.45
2023-03-06T12:24:02.101Z,9.90
2023-03-06T12:27:18.716Z,11.77
2023-03-06T12:30:43.063Z,9.77
2023-03-06T12:33:58.441Z,9.73
2023-03-06T12:37:13.898Z,9.50
2023-03-06T12:40:46.475Z,9.95
2023-03-06T12:44:18.473Z,14.95
2023-03-06T12:47:26.579Z,11.90
2023-03-06T12:50:32.515Z,12.27
2023-03-06T12:53:37.157Z,14.50
2023-03-06T12:56:40.906Z,12.38
2023-03-06T12:59:47.949Z,9.93
2023-03-06T13:03:12.465Z,12.70
2023-03-06T13:06:49.923Z,13.85
2023-03-06T13:10:06.796Z,12.75
2023-03-06T13:13:31.902Z,13.23
2023-03-06T13:16:36.003Z,12.65
2023-03-06T13:19:39.192Z,14.00
2023-03-06T13:22:44.742Z,13.27
2023-03-06T13:25:50.133Z,13.30
2023-03-06T13:28:54.821Z,12.65
2023-03-06T13:32:15.793Z,13.60
2023-03-06T13:35:52.078Z,12.05
2023-03-06T13:39:02.020Z,12.63
2023-03-06T13:42:08.141Z,18.17
2023-03-06T13:45:16.818Z,17.35
2023-03-06T13:48:43.693Z,13.68
2023-03-06T13:52:06.002Z,13.25
2023-03-06T13:55:25.347Z,14.85
2023-03-06T13:58:51.740Z,17.15
2023-03-06T14:02:10.071Z,12.93
2023-03-06T14:05:15.069Z,13.63
2023-03-06T14:08:20.988Z,12.77
2023-03-06T14:11:26.160Z,14.82
2023-03-06T14:14:39.529Z,13.63
2023-03-06T14:17:54.150Z,15.02
2023-03-06T14:21:00.004Z,16.70
2023-03-06T14:24:05.019Z,14.13
2023-03-06T14:27:18.633Z,14.27
2023-03-06T14:30:25.364Z,15.57
2023-03-06T14:33:33.299Z,13.65
2023-03-06T14:36:43.325Z,14.00
2023-03-06T14:39:46.730Z,13.23
2023-03-06T14:43:10.298Z,14.02
2023-03-06T14:46:20.540Z,15.48
2023-03-06T14:49:25.342Z,18.90
2023-03-06T14:52:29.243Z,19.27
2023-03-06T14:55:36.321Z,15.88
2023-03-06T14:58:55.156Z,14.82
2023-03-06T15:02:01.879Z,14.43
2023-03-06T15:05:08.001Z,16.55
2023-03-06T15:08:11.110Z,16.58
2023-03-06T15:11:14.229Z,16.42
2023-03-06T15:14:21.740Z,17.88
2023-03-06T15:17:29.343Z,16.67
2023-03-06T15:20:46.346Z,17.42
2023-03-06T15:23:50.617Z,18.35
2023-03-06T15:27:02.477Z,18.48
2023-03-06T15:30:21.738Z,19.23
2023-03-06T15:33:26.984Z,27.70
2023-03-06T15:36:31.298Z,18.92
2023-03-06T15:39:38.339Z,20.73
2023-03-06T15:42:43.714Z,19.33
2023-03-06T15:45:48.387Z,18.10
2023-03-06T15:48:55.883Z,21.85
2023-03-06T15:51:58.868Z,23.05
2023-03-06T15:55:01.888Z,22.33
2023-03-06T15:58:05.468Z,20.40
2023-03-06T16:01:16.833Z,21.45
2023-03-06T16:04:20.198Z,21.10
2023-03-06T16:07:23.234Z,22.40
2023-03-06T16:10:28.662Z,19.50
2023-03-06T16:13:31.732Z,21.17
2023-03-06T16:16:39.629Z,20.92
2023-03-06T16:19:43.060Z,22.67
2023-03-06T16:22:46.832Z,22.80
2023-03-06T16:25:50.448Z,22.92
2023-03-06T16:28:53.375Z,24.45
2023-03-06T16:31:58.817Z,20.77
2023-03-06T16:35:01.943Z,23.15
2023-03-06T16:38:04.961Z,20.65
2023-03-06T16:41:08.007Z,23.77
2023-03-06T16:44:11.671Z,27.58
2023-03-06T16:47:16.084Z,34.42
2023-03-06T16:50:25.857Z,22.73
2023-03-06T16:53:28.920Z,21.63
2023-03-06T16:56:31.983Z,22.13
2023-03-06T16:59:35.141Z,24.20
2023-03-06T17:02:39.840Z,21.23
2023-03-06T17:05:44.141Z,22.92
2023-03-06T17:08:48.383Z,27.08
2023-03-06T17:11:51.419Z,27.52
2023-03-06T17:14:54.371Z,28.85
2023-03-06T17:17:59.601Z,24.38
2023-03-06T17:21:02.522Z,26.13
2023-03-06T17:24:05.973Z,33.38
2023-03-06T17:27:08.904Z,36.83
2023-03-06T17:30:13.316Z,25.67
2023-03-06T17:33:17.704Z,29.48
2023-03-06T17:36:20.812Z,27.42
2023-03-06T17:39:24.340Z,30.20
2023-03-06T17:42:27.299Z,32.50
2023-03-06T17:45:30.368Z,27.38
2023-03-06T17:48:35.448Z,52.35
2023-03-06T17:51:38.461Z,28.70
2023-03-06T17:54:41.362Z,28.33
2023-03-06T17:57:44.267Z,30.20
2023-03-06T18:00:47.280Z,27.70
2023-03-06T18:03:52.708Z,26.17
2023-03-06T18:06:57.060Z,30.30
2023-03-06T18:09:59.981Z,34.17
2023-03-06T18:13:03.077Z,28.88
2023-03-06T18:16:07.326Z,28.75
2023-03-06T18:19:12.177Z,33.28
2023-03-06T18:22:15.097Z,28.30
2023-03-06T18:25:18.387Z,29.70
2023-03-06T18:28:21.272Z,31.23
2023-03-06T18:31:25.878Z,29.60
2023-03-06T18:34:30.247Z,32.70
2023-03-06T18:37:33.234Z,29.00
2023-03-06T18:40:36.778Z,27.35
2023-03-06T18:43:39.854Z,28.73
2023-03-06T18:46:43.213Z,27.63
2023-03-06T18:49:47.519Z,29.08
2023-03-06T18:52:50.455Z,29.13
2023-03-06T18:55:54.731Z,26.92
2023-03-06T18:58:57.981Z,27.48
2023-03-06T19:02:00.934Z,26.17
2023-03-06T19:05:07.290Z,23.48
2023-03-06T19:08:10.659Z,24.83
2023-03-06T19:11:16.770Z,29.80
2023-03-06T19:14:21.302Z,28.42
2023-03-06T19:17:25.063Z,30.35
2023-03-06T19:20:29.564Z,23.20
2023-03-06T19:23:32.520Z,28.42
2023-03-06T19:26:35.487Z,32.00
2023-03-06T19:29:38.579Z,32.95
2023-03-06T19:32:46.097Z,28.20
2023-03-06T19:35:50.547Z,31.83
2023-03-06T19:38:55.164Z,25.40
2023-03-06T19:41:58.190Z,27.65
2023-03-06T19:45:01.696Z,29.48
2023-03-06T19:48:05.965Z,28.60
2023-03-06T19:51:11.183Z,29.98
2023-03-06T19:54:15.130Z,28.58
2023-03-06T19:57:18.539Z,25.02
2023-03-06T20:00:22.200Z,33.17
2023-03-06T20:03:25.252Z,27.17
2023-03-06T20:06:33.569Z,26.25
2023-03-06T20:09:36.663Z,30.23
2023-03-06T20:12:39.722Z,29.88
2023-03-06T20:15:42.749Z,28.42
2023-03-06T20:18:46.267Z,28.42
2023-03-06T20:21:50.727Z,32.80
2023-03-06T20:24:54.317Z,29.02
2023-03-06T20:27:57.382Z,25.40
2023-03-06T20:31:00.337Z,25.25
2023-03-06T20:34:04.479Z,23.90
2023-03-06T20:37:09.616Z,28.13
2023-03-06T20:40:14.007Z,27.95
2023-03-06T20:43:17.119Z,27.98
2023-03-06T20:46:21.711Z,28.42
2023-03-06T20:49:27.189Z,23.70
2023-03-06T20:52:31.731Z,25.67
2023-03-06T20:55:37.562Z,24.52
2023-03-06T20:58:40.597Z,27.05
2023-03-06T21:01:45.038Z,24.67
2023-03-06T21:04:48.115Z,25.67
2023-03-06T21:07:53.289Z,25.80
2023-03-06T21:10:56.308Z,23.85
2023-03-06T21:14:00.778Z,24.80
2023-03-06T21:17:03.873Z,21.70
2023-03-06T21:20:07.832Z,23.05
2023-03-06T21:23:12.310Z,22.05
2023-03-06T21:26:17.703Z,21.73
2023-03-06T21:29:20.715Z,24.10
2023-03-06T21:32:24.099Z,20.25
2023-03-06T21:35:27.142Z,21.20
2023-03-06T21:38:31.555Z,21.05
2023-03-06T21:41:34.901Z,20.33
2023-03-06T21:44:37.887Z,21.75
2023-03-06T21:47:41.004Z,20.95
2023-03-06T21:50:44.020Z,22.75
2023-03-06T21:53:49.598Z,25.42
2023-03-06T21:56:53.086Z,27.88
2023-03-06T21:59:56.464Z,20.52
2023-03-06T22:02:59.897Z,21.33
2023-03-06T22:06:09.319Z,30.02
2023-03-06T22:09:16.046Z,21.30
2023-03-06T22:12:18.978Z,21.42
2023-03-06T22:15:22.312Z,22.00
2023-03-06T22:18:25.355Z,22.90
2023-03-06T22:21:28.465Z,17.35
2023-03-06T22:24:32.936Z,17.73
2023-03-06T22:27:35.870Z,17.88
2023-03-06T22:30:38.967Z,19.80
2023-03-06T22:33:42.412Z,16.73
2023-03-06T22:36:45.567Z,19.80
2023-03-06T22:39:50.201Z,18.58
2023-03-06T22:42:53.126Z,17.10
2023-03-06T22:45:56.123Z,18.60
2023-03-06T22:48:59.942Z,20.38
2023-03-06T22:52:03.314Z,17.60
2023-03-06T22:55:08.795Z,19.05
2023-03-06T22:58:11.691Z,16.52
2023-03-06T23:01:16.844Z,18.90
2023-03-06T23:04:19.785Z,17.67
2023-03-06T23:07:22.683Z,18.23
2023-03-06T23:10:27.054Z,16.90
2023-03-06T23:13:48.700Z,20.90
2023-03-06T23:17:10.323Z,17.52
2023-03-06T23:20:31.892Z,13.98
2023-03-06T23:23:54.916Z,16.60
2023-03-06T23:26:59.212Z,15.40
2023-03-06T23:30:02.295Z,14.93
2023-03-06T23:33:06.140Z,15.55
2023-03-06T23:36:11.983Z,16.05
2023-03-06T23:39:15.154Z,14.35
2023-03-06T23:42:20.245Z,14.40
2023-03-06T23:45:23.360Z,16.23
2023-03-06T23:48:27.086Z,13.95
2023-03-06T23:51:30.155Z,14.95
2023-03-06T23:54:34.342Z,13.77
2023-03-06T23:57:38.836Z,12.77
